createdAt,value
2019-04-07T00:00:04.012Z,1011.54
2019-04-07T00:01:04.673Z,1011.54
2019-04-07T00:02:05.194Z,1011.50
2019-04-07T00:03:05.766Z,1011.53
2019-04-07T00:04:06.519Z,1011.51
2019-04-07T00:05:13.618Z,1011.50
2019-04-07T00:06:08.166Z,1011.51
2019-04-07T00:07:09.278Z,1011.51
2019-04-07T00:08:10.133Z,1011.52
2019-04-07T00:09:10.824Z,1011.45
2019-04-07T00:10:11.387Z,1011.44
2019-04-07T00:11:12.323Z,1011.47
2019-04-07T00:12:12.822Z,1011.45
2019-04-07T00:13:13.645Z,1011.49
2019-04-07T00:14:14.207Z,1011.47
2019-04-07T00:15:15.483Z,1011.57
2019-04-07T00:16:16.823Z,1011.57
2019-04-07T00:17:17.921Z,1011.65
2019-04-07T00:18:19.106Z,1011.50
2019-04-07T00:19:19.669Z,1011.65
2019-04-07T00:20:20.822Z,1011.63
2019-04-07T00:21:22.008Z,1011.66
2019-04-07T00:22:22.550Z,1011.69
2019-04-07T00:23:23.171Z,1011.68
2019-04-07T00:24:23.746Z,1011.66
2019-04-07T00:25:25.065Z,1011.66
2019-04-07T00:26:25.637Z,1011.62
2019-04-07T00:27:26.260Z,1011.59
2019-04-07T00:28:27.426Z,1011.57
2019-04-07T00:29:28.809Z,1011.58
2019-04-07T00:30:29.402Z,1011.56
2019-04-07T00:31:29.971Z,1011.65
2019-04-07T00:32:30.543Z,1011.59
2019-04-07T00:33:32.211Z,1011.58
2019-04-07T00:34:32.774Z,1011.58
2019-04-07T00:35:33.664Z,1011.64
2019-04-07T00:36:34.223Z,1011.62
2019-04-07T00:37:34.825Z,1011.62
2019-04-07T00:38:35.934Z,1011.60
2019-04-07T00:39:36.486Z,1011.68
2019-04-07T00:40:37.107Z,1011.58
2019-04-07T00:41:37.638Z,1011.60
2019-04-07T00:42:38.213Z,1011.62
2019-04-07T00:43:38.832Z,1011.64
2019-04-07T00:44:39.954Z,1011.69
2019-04-07T00:45:40.573Z,1011.73
2019-04-07T00:46:41.098Z,1011.71
2019-04-07T00:47:41.670Z,1011.73
2019-04-07T00:48:42.441Z,1011.73
2019-04-07T00:49:43.459Z,1011.76
2019-04-07T00:50:44.008Z,1011.73
2019-04-07T00:51:44.577Z,1011.75
2019-04-07T00:52:45.148Z,1011.72
2019-04-07T00:53:45.718Z,1011.70
2019-04-07T00:54:46.958Z,1011.70
2019-04-07T00:55:47.596Z,1011.73
2019-04-07T00:56:48.119Z,1011.72
2019-04-07T00:57:48.685Z,1011.63
2019-04-07T00:58:49.923Z,1011.63
2019-04-07T00:59:50.605Z,1011.63
2019-04-07T01:00:51.178Z,1011.61
2019-04-07T01:01:51.746Z,1011.63
2019-04-07T01:02:52.924Z,1011.65
2019-04-07T01:03:53.435Z,1011.74
2019-04-07T01:04:53.983Z,1011.75
2019-04-07T01:05:54.600Z,1011.70
2019-04-07T01:06:55.964Z,1011.77
2019-04-07T01:07:56.550Z,1011.88
2019-04-07T01:08:57.120Z,1011.87
2019-04-07T01:09:57.690Z,1011.86
2019-04-07T01:10:58.260Z,1011.90
2019-04-07T01:11:58.832Z,1011.92
2019-04-07T01:13:00.071Z,1011.84
2019-04-07T01:14:00.698Z,1011.83
2019-04-07T01:15:01.252Z,1011.74
2019-04-07T01:16:01.882Z,1011.69
2019-04-07T01:17:02.579Z,1011.75
2019-04-07T01:18:03.247Z,1011.79
2019-04-07T01:19:03.817Z,1011.75
2019-04-07T01:20:04.393Z,1011.81
2019-04-07T01:21:05.016Z,1011.76
2019-04-07T01:22:05.586Z,1011.70
2019-04-07T01:23:06.206Z,1011.79
2019-04-07T01:24:07.295Z,1011.70
2019-04-07T01:25:08.846Z,1011.66
2019-04-07T01:26:09.711Z,1011.64
2019-04-07T01:27:10.466Z,1011.61
2019-04-07T01:28:11.061Z,1011.62
2019-04-07T01:29:11.584Z,1011.57
2019-04-07T01:30:12.264Z,1011.66
2019-04-07T01:31:13.349Z,1011.66
2019-04-07T01:32:13.790Z,1011.68
2019-04-07T01:33:14.370Z,1011.68
2019-04-07T01:34:15.085Z,1011.73
2019-04-07T01:35:15.609Z,1011.73
2019-04-07T01:36:16.207Z,1011.70
2019-04-07T01:37:16.795Z,1011.74
2019-04-07T01:38:17.894Z,1011.62
2019-04-07T01:39:18.314Z,1011.68
2019-04-07T01:40:18.922Z,1011.60
2019-04-07T01:41:19.529Z,1011.63
2019-04-07T01:42:21.317Z,1011.63
2019-04-07T01:43:21.907Z,1011.62
2019-04-07T01:44:22.488Z,1011.62
2019-04-07T01:45:23.700Z,1011.61
2019-04-07T01:46:24.342Z,1011.62
2019-04-07T01:47:24.937Z,1011.68
2019-04-07T01:48:25.720Z,1011.62
2019-04-07T01:49:27.135Z,1011.65
2019-04-07T01:50:28.541Z,1011.57
2019-04-07T01:51:28.407Z,1011.63
2019-04-07T01:52:28.981Z,1011.52
2019-04-07T01:53:30.206Z,1011.46
2019-04-07T01:54:30.865Z,1011.57
2019-04-07T01:55:31.412Z,1011.61
2019-04-07T01:56:32.511Z,1011.50
2019-04-07T01:57:33.807Z,1011.53
2019-04-07T01:58:34.829Z,1011.50
2019-04-07T01:59:36.499Z,1011.54
2019-04-07T02:00:37.116Z,1011.60
2019-04-07T02:01:37.653Z,1011.49
2019-04-07T02:02:38.229Z,1011.53
2019-04-07T02:03:38.796Z,1011.51
2019-04-07T02:04:39.844Z,1011.54
2019-04-07T02:05:40.790Z,1011.52
2019-04-07T02:06:41.329Z,1011.56
2019-04-07T02:07:41.948Z,1011.53
2019-04-07T02:08:42.857Z,1011.55
2019-04-07T02:09:43.418Z,1011.45
2019-04-07T02:10:44.603Z,1011.50
2019-04-07T02:11:45.234Z,1011.52
2019-04-07T02:12:45.773Z,1011.48
2019-04-07T02:13:46.345Z,1011.54
2019-04-07T02:14:46.917Z,1011.63
2019-04-07T02:15:47.485Z,1011.57
2019-04-07T02:16:48.110Z,1011.60
2019-04-07T02:17:48.795Z,1011.62
2019-04-07T02:18:49.583Z,1011.68
2019-04-07T02:19:50.119Z,1011.73
2019-04-07T02:20:50.815Z,1011.90
2019-04-07T02:21:51.541Z,1011.84
2019-04-07T02:22:52.122Z,1011.90
2019-04-07T02:23:52.712Z,1011.86
2019-04-07T02:24:53.233Z,1011.83
2019-04-07T02:25:53.802Z,1011.82
2019-04-07T02:26:54.380Z,1011.82
2019-04-07T02:27:55.656Z,1011.79
2019-04-07T02:28:56.279Z,1011.81
2019-04-07T02:29:56.834Z,1011.75
2019-04-07T02:30:57.404Z,1011.75
2019-04-07T02:31:58.531Z,1011.70
2019-04-07T02:33:00.020Z,1011.75
2019-04-07T02:34:00.611Z,1011.73
2019-04-07T02:35:01.478Z,1011.77
2019-04-07T02:36:15.534Z,1011.65
2019-04-07T02:37:04.620Z,1011.64
2019-04-07T02:38:06.190Z,1011.53
2019-04-07T02:39:06.786Z,1011.54
2019-04-07T02:40:07.359Z,1011.57
2019-04-07T02:41:08.999Z,1011.64
2019-04-07T02:42:09.542Z,1011.61
2019-04-07T02:43:10.528Z,1011.56
2019-04-07T02:44:11.136Z,1011.60
2019-04-07T02:45:11.703Z,1011.63
2019-04-07T02:46:13.019Z,1011.59
2019-04-07T02:47:13.745Z,1011.61
2019-04-07T02:48:14.334Z,1011.70
2019-04-07T02:49:14.907Z,1011.63
2019-04-07T02:50:15.629Z,1011.72
2019-04-07T02:51:16.182Z,1011.65
2019-04-07T02:52:16.756Z,1011.63
2019-04-07T02:53:17.325Z,1011.60
2019-04-07T02:54:17.894Z,1011.66
2019-04-07T02:55:18.756Z,1011.65
2019-04-07T02:56:19.155Z,1011.66
2019-04-07T02:57:19.760Z,1011.61
2019-04-07T02:58:20.528Z,1011.59
2019-04-07T02:59:21.524Z,1011.54
2019-04-07T03:00:22.343Z,1011.46
2019-04-07T03:01:22.966Z,1011.53
2019-04-07T03:02:23.577Z,1011.48
2019-04-07T03:03:24.898Z,1011.41
2019-04-07T03:04:26.234Z,1011.39
2019-04-07T03:05:26.841Z,1011.32
2019-04-07T03:06:42.444Z,1011.42
2019-04-07T03:07:29.143Z,1011.40
2019-04-07T03:08:30.142Z,1011.48
2019-04-07T03:09:31.088Z,1011.33
2019-04-07T03:10:31.673Z,1011.37
2019-04-07T03:11:32.242Z,1011.36
2019-04-07T03:12:33.240Z,1011.36
2019-04-07T03:13:34.975Z,1011.37
2019-04-07T03:14:35.400Z,1011.37
2019-04-07T03:15:36.318Z,1011.41
2019-04-07T03:16:37.489Z,1011.37
2019-04-07T03:17:38.087Z,1011.37
2019-04-07T03:18:39.080Z,1011.37
2019-04-07T03:19:39.626Z,1011.35
2019-04-07T03:20:40.314Z,1011.39
2019-04-07T03:21:40.861Z,1011.44
2019-04-07T03:22:41.885Z,1011.35
2019-04-07T03:23:42.454Z,1011.48
2019-04-07T03:24:43.037Z,1011.53
2019-04-07T03:25:43.596Z,1011.57
2019-04-07T03:26:44.503Z,1011.55
2019-04-07T03:27:45.063Z,1011.57
2019-04-07T03:28:45.685Z,1011.63
2019-04-07T03:29:47.095Z,1011.63
2019-04-07T03:30:49.440Z,1011.55
2019-04-07T03:31:51.321Z,1011.51
2019-04-07T03:32:53.493Z,1011.54
2019-04-07T03:33:54.110Z,1011.51
2019-04-07T03:34:56.255Z,1011.53
2019-04-07T03:35:56.807Z,1011.43
2019-04-07T03:37:26.996Z,1011.49
2019-04-07T03:37:59.233Z,1011.55
2019-04-07T03:38:59.833Z,1011.46
2019-04-07T03:40:00.911Z,1011.44
2019-04-07T03:41:01.778Z,1011.49
2019-04-07T03:42:03.014Z,1011.50
2019-04-07T03:43:02.968Z,1011.52
2019-04-07T03:44:03.539Z,1011.60
2019-04-07T03:45:04.389Z,1011.64
2019-04-07T03:46:05.927Z,1011.59
2019-04-07T03:47:07.159Z,1011.64
2019-04-07T03:48:08.467Z,1011.77
2019-04-07T03:49:09.894Z,1011.84
2019-04-07T03:50:10.715Z,1011.88
2019-04-07T03:51:11.289Z,1011.82
2019-04-07T03:52:11.913Z,1011.82
2019-04-07T03:53:12.519Z,1011.83
2019-04-07T03:54:13.048Z,1011.82
2019-04-07T03:55:13.615Z,1011.82
2019-04-07T03:56:14.511Z,1011.78
2019-04-07T03:57:15.186Z,1011.80
2019-04-07T03:58:16.662Z,1011.81
2019-04-07T03:59:18.124Z,1011.85
2019-04-07T04:00:18.924Z,1011.85
2019-04-07T04:01:19.442Z,1011.88
2019-04-07T04:02:20.009Z,1011.91
2019-04-07T04:03:20.577Z,1011.90
2019-04-07T04:04:22.190Z,1011.88
2019-04-07T04:05:22.768Z,1011.80
2019-04-07T04:06:23.379Z,1011.85
2019-04-07T04:07:31.654Z,1011.76
2019-04-07T04:08:26.562Z,1011.74
2019-04-07T04:09:27.133Z,1011.72
2019-04-07T04:10:27.696Z,1011.83
2019-04-07T04:11:28.654Z,1011.74
2019-04-07T04:12:29.936Z,1011.74
2019-04-07T04:13:30.738Z,1011.82
2019-04-07T04:14:31.444Z,1011.88
2019-04-07T04:15:32.786Z,1011.84
2019-04-07T04:16:34.072Z,1011.84
2019-04-07T04:17:34.654Z,1011.86
2019-04-07T04:18:35.339Z,1011.90
2019-04-07T04:19:36.166Z,1011.98
2019-04-07T04:20:37.257Z,1011.91
2019-04-07T04:21:38.197Z,1011.88
2019-04-07T04:22:39.555Z,1011.91
2019-04-07T04:23:43.010Z,1011.91
2019-04-07T04:24:42.189Z,1011.92
2019-04-07T04:25:43.130Z,1011.86
2019-04-07T04:26:44.123Z,1011.87
2019-04-07T04:27:44.952Z,1011.82
2019-04-07T04:28:46.215Z,1011.87
2019-04-07T04:29:50.651Z,1011.83
2019-04-07T04:30:48.296Z,1011.87
2019-04-07T04:31:49.191Z,1011.82
2019-04-07T04:32:49.733Z,1011.89
2019-04-07T04:33:50.297Z,1011.77
2019-04-07T04:34:50.868Z,1011.82
2019-04-07T04:35:51.846Z,1011.84
2019-04-07T04:36:53.096Z,1011.93
2019-04-07T04:37:54.916Z,1011.94
2019-04-07T04:38:55.577Z,1011.94
2019-04-07T04:39:56.151Z,1011.92
2019-04-07T04:40:56.949Z,1011.95
2019-04-07T04:41:57.734Z,1011.88
2019-04-07T04:42:58.350Z,1011.95
2019-04-07T04:44:00.419Z,1011.88
2019-04-07T04:45:00.742Z,1011.88
2019-04-07T04:46:01.416Z,1011.86
2019-04-07T04:47:02.782Z,1011.93
2019-04-07T04:48:04.347Z,1011.95
2019-04-07T04:49:04.936Z,1011.89
2019-04-07T04:50:06.359Z,1011.90
2019-04-07T04:51:06.674Z,1011.88
2019-04-07T04:52:07.302Z,1011.94
2019-04-07T04:53:09.237Z,1011.92
2019-04-07T04:54:10.909Z,1011.88
2019-04-07T04:55:11.371Z,1011.94
2019-04-07T04:56:11.929Z,1011.89
2019-04-07T04:57:13.137Z,1011.82
2019-04-07T04:58:13.743Z,1011.88
2019-04-07T04:59:14.879Z,1011.86
2019-04-07T05:00:15.773Z,1011.82
2019-04-07T05:01:17.480Z,1011.76
2019-04-07T05:02:18.083Z,1011.82
2019-04-07T05:03:19.426Z,1011.74
2019-04-07T05:04:20.753Z,1011.82
2019-04-07T05:05:21.340Z,1011.75
2019-04-07T05:06:21.895Z,1011.83
2019-04-07T05:07:22.996Z,1011.82
2019-04-07T05:08:23.757Z,1011.80
2019-04-07T05:09:24.468Z,1011.84
2019-04-07T05:10:25.245Z,1011.87
2019-04-07T05:11:26.064Z,1011.87
2019-04-07T05:12:26.601Z,1011.87
2019-04-07T05:13:27.283Z,1011.86
2019-04-07T05:14:28.415Z,1011.92
2019-04-07T05:15:29.628Z,1011.89
2019-04-07T05:16:30.179Z,1011.90
2019-04-07T05:17:31.131Z,1011.89
2019-04-07T05:18:32.360Z,1011.89
2019-04-07T05:19:33.414Z,1011.90
2019-04-07T05:20:34.433Z,1011.90
2019-04-07T05:21:35.072Z,1012.00
2019-04-07T05:22:35.840Z,1012.01
2019-04-07T05:23:36.485Z,1011.94
2019-04-07T05:24:37.604Z,1011.99
2019-04-07T05:25:37.771Z,1011.99
2019-04-07T05:26:38.868Z,1011.97
2019-04-07T05:27:39.427Z,1012.02
2019-04-07T05:28:40.474Z,1012.14
2019-04-07T05:29:41.310Z,1012.03
2019-04-07T05:30:43.443Z,1012.06
2019-04-07T05:31:44.766Z,1012.08
2019-04-07T05:32:45.391Z,1012.08
2019-04-07T05:33:46.485Z,1012.00
2019-04-07T05:34:46.802Z,1012.06
2019-04-07T05:35:47.344Z,1012.08
2019-04-07T05:36:48.007Z,1012.06
2019-04-07T05:37:59.924Z,1012.10
2019-04-07T05:38:49.956Z,1012.04
2019-04-07T05:39:50.514Z,1012.03
2019-04-07T05:40:51.084Z,1012.04
2019-04-07T05:41:51.755Z,1012.10
2019-04-07T05:42:52.326Z,1012.15
2019-04-07T05:43:53.612Z,1012.00
2019-04-07T05:44:55.113Z,1012.11
2019-04-07T05:45:56.361Z,1012.09
2019-04-07T05:46:56.957Z,1012.21
2019-04-07T05:47:57.871Z,1012.14
2019-04-07T05:48:58.851Z,1012.18
2019-04-07T05:50:00.600Z,1012.16
2019-04-07T05:51:01.069Z,1012.11
2019-04-07T05:52:04.595Z,1012.20
2019-04-07T05:53:03.264Z,1012.13
2019-04-07T05:54:03.838Z,1012.11
2019-04-07T05:55:04.500Z,1012.16
2019-04-07T05:56:06.021Z,1012.15
2019-04-07T05:57:06.635Z,1012.18
2019-04-07T05:58:08.386Z,1012.12
2019-04-07T05:59:09.963Z,1012.13
2019-04-07T06:00:13.521Z,1012.14
2019-04-07T06:01:10.684Z,1012.24
2019-04-07T06:02:11.224Z,1012.20
2019-04-07T06:03:12.162Z,1012.19
2019-04-07T06:04:17.523Z,1012.16
2019-04-07T06:05:16.232Z,1012.07
2019-04-07T06:06:15.907Z,1012.11
2019-04-07T06:07:16.440Z,1012.08
2019-04-07T06:08:24.599Z,1012.09
2019-04-07T06:09:20.564Z,1012.13
2019-04-07T06:10:22.336Z,1012.10
2019-04-07T06:11:21.753Z,1012.11
2019-04-07T06:12:22.680Z,1012.06
2019-04-07T06:13:23.686Z,1012.07
2019-04-07T06:14:24.439Z,1012.12
2019-04-07T06:15:24.996Z,1012.06
2019-04-07T06:16:25.565Z,1012.14
2019-04-07T06:17:27.445Z,1012.18
2019-04-07T06:18:31.953Z,1012.18
2019-04-07T06:19:29.391Z,1012.24
2019-04-07T06:20:30.189Z,1012.30
2019-04-07T06:21:31.219Z,1012.24
2019-04-07T06:22:31.775Z,1012.27
2019-04-07T06:23:32.342Z,1012.35
2019-04-07T06:24:34.336Z,1012.32
2019-04-07T06:25:38.773Z,1012.38
2019-04-07T06:26:37.005Z,1012.29
2019-04-07T06:27:38.278Z,1012.30
2019-04-07T06:28:39.292Z,1012.30
2019-04-07T06:29:39.941Z,1012.30
2019-04-07T06:30:40.470Z,1012.32
2019-04-07T06:31:41.485Z,1012.31
2019-04-07T06:32:43.706Z,1012.36
2019-04-07T06:33:43.691Z,1012.40
2019-04-07T06:34:44.467Z,1012.35
2019-04-07T06:35:47.271Z,1012.40
2019-04-07T06:36:48.368Z,1012.37
2019-04-07T06:37:47.685Z,1012.44
2019-04-07T06:38:51.789Z,1012.33
2019-04-07T06:39:51.565Z,1012.45
2019-04-07T06:40:56.472Z,1012.40
2019-04-07T06:41:52.379Z,1012.43
2019-04-07T06:42:53.336Z,1012.46
2019-04-07T06:43:54.179Z,1012.45
2019-04-07T06:44:55.326Z,1012.47
2019-04-07T06:45:56.347Z,1012.55
2019-04-07T06:46:59.955Z,1012.53
2019-04-07T06:48:01.171Z,1012.62
2019-04-07T06:49:00.409Z,1012.60
2019-04-07T06:50:00.968Z,1012.64
2019-04-07T06:51:01.805Z,1012.58
2019-04-07T06:52:04.679Z,1012.57
2019-04-07T06:53:04.378Z,1012.64
2019-04-07T06:54:04.782Z,1012.54
2019-04-07T06:55:05.492Z,1012.63
2019-04-07T06:56:06.098Z,1012.62
2019-04-07T06:57:07.367Z,1012.65
2019-04-07T06:58:08.433Z,1012.69
2019-04-07T06:59:12.834Z,1012.67
2019-04-07T07:00:10.244Z,1012.70
2019-04-07T07:01:11.107Z,1012.72
2019-04-07T07:02:12.096Z,1012.72
2019-04-07T07:03:12.865Z,1012.73
2019-04-07T07:04:14.005Z,1012.72
2019-04-07T07:05:14.551Z,1012.72
2019-04-07T07:06:17.278Z,1012.82
2019-04-07T07:07:18.329Z,1012.81
2019-04-07T07:08:21.614Z,1012.73
2019-04-07T07:09:20.119Z,1012.78
2019-04-07T07:10:27.163Z,1012.69
2019-04-07T07:11:28.010Z,1012.78
2019-04-07T07:12:31.345Z,1012.80
2019-04-07T07:13:29.214Z,1012.81
2019-04-07T07:14:35.497Z,1012.79
2019-04-07T07:15:28.539Z,1012.77
2019-04-07T07:16:29.914Z,1012.77
2019-04-07T07:17:31.110Z,1012.69
2019-04-07T07:18:32.263Z,1012.72
2019-04-07T07:19:32.914Z,1012.79
2019-04-07T07:20:33.468Z,1012.72
2019-04-07T07:21:38.092Z,1012.72
2019-04-07T07:22:35.739Z,1012.72
2019-04-07T07:23:36.450Z,1012.72
2019-04-07T07:24:37.001Z,1012.77
2019-04-07T07:25:37.653Z,1012.72
2019-04-07T07:26:38.662Z,1012.72
2019-04-07T07:27:41.006Z,1012.74
2019-04-07T07:28:42.910Z,1012.72
2019-04-07T07:29:45.426Z,1012.70
2019-04-07T07:30:43.918Z,1012.69
2019-04-07T07:31:44.869Z,1012.68
2019-04-07T07:32:46.364Z,1012.68
2019-04-07T07:33:47.420Z,1012.73
2019-04-07T07:34:48.065Z,1012.67
2019-04-07T07:35:49.293Z,1012.66
2019-04-07T07:36:53.465Z,1012.63
2019-04-07T07:37:53.647Z,1012.68
2019-04-07T07:38:59.817Z,1012.70
2019-04-07T07:39:52.764Z,1012.65
2019-04-07T07:40:53.337Z,1012.63
2019-04-07T07:41:54.071Z,1012.67
2019-04-07T07:42:56.708Z,1012.72
2019-04-07T07:44:00.710Z,1012.66
2019-04-07T07:44:58.332Z,1012.64
2019-04-07T07:45:59.122Z,1012.61
2019-04-07T07:47:00.497Z,1012.69
2019-04-07T07:48:01.026Z,1012.72
2019-04-07T07:49:02.164Z,1012.72
2019-04-07T07:50:04.912Z,1012.76
2019-04-07T07:51:04.358Z,1012.79
2019-04-07T07:52:06.053Z,1012.83
2019-04-07T07:53:06.807Z,1012.85
2019-04-07T07:54:07.353Z,1012.81
2019-04-07T07:55:08.024Z,1012.81
2019-04-07T07:56:12.080Z,1012.78
2019-04-07T07:57:10.109Z,1012.79
2019-04-07T07:58:10.680Z,1012.74
2019-04-07T07:59:12.264Z,1012.79
2019-04-07T08:00:12.885Z,1012.76
2019-04-07T08:01:14.865Z,1012.71
2019-04-07T08:02:16.809Z,1012.76
2019-04-07T08:03:15.619Z,1012.70
2019-04-07T08:04:16.340Z,1012.72
2019-04-07T08:05:17.167Z,1012.73
2019-04-07T08:06:18.479Z,1012.81
2019-04-07T08:07:18.327Z,1012.78
2019-04-07T08:08:18.945Z,1012.84
2019-04-07T08:09:23.625Z,1012.80
2019-04-07T08:10:23.353Z,1012.83
2019-04-07T08:11:21.688Z,1012.71
2019-04-07T08:12:22.689Z,1012.78
2019-04-07T08:13:23.547Z,1012.75
2019-04-07T08:14:24.238Z,1012.71
2019-04-07T08:15:29.674Z,1012.71
2019-04-07T08:16:29.380Z,1012.76
2019-04-07T08:17:31.423Z,1012.78
2019-04-07T08:18:29.681Z,1012.75
2019-04-07T08:19:30.872Z,1012.83
2019-04-07T08:20:30.838Z,1012.73
2019-04-07T08:21:31.596Z,1012.80
2019-04-07T08:22:39.257Z,1012.81
2019-04-07T08:23:34.118Z,1012.71
2019-04-07T08:24:35.130Z,1012.76
2019-04-07T08:25:35.820Z,1012.78
2019-04-07T08:26:36.370Z,1012.81
2019-04-07T08:27:37.027Z,1012.84
2019-04-07T08:28:38.167Z,1012.75
2019-04-07T08:29:39.612Z,1012.78
2019-04-07T08:30:43.990Z,1012.76
2019-04-07T08:31:42.648Z,1012.76
2019-04-07T08:32:43.294Z,1012.69
2019-04-07T08:33:43.834Z,1012.78
2019-04-07T08:34:44.852Z,1012.83
2019-04-07T08:35:45.534Z,1012.71
2019-04-07T08:36:47.193Z,1012.72
2019-04-07T08:37:48.918Z,1012.84
2019-04-07T08:38:51.774Z,1012.80
2019-04-07T08:39:50.868Z,1012.85
2019-04-07T08:40:53.994Z,1012.81
2019-04-07T08:41:53.026Z,1012.81
2019-04-07T08:42:53.595Z,1012.88
2019-04-07T08:43:56.957Z,1012.86
2019-04-07T08:44:58.705Z,1012.84
2019-04-07T08:45:57.938Z,1012.86
2019-04-07T08:46:59.007Z,1012.87
2019-04-07T08:47:59.567Z,1012.82
2019-04-07T08:49:00.237Z,1012.88
2019-04-07T08:50:00.755Z,1012.87
2019-04-07T08:51:01.324Z,1012.85
2019-04-07T08:52:07.438Z,1012.84
2019-04-07T08:53:04.270Z,1012.87
2019-04-07T08:54:05.873Z,1012.89
2019-04-07T08:55:07.317Z,1012.87
2019-04-07T08:56:08.874Z,1012.79
2019-04-07T08:57:09.410Z,1012.87
2019-04-07T08:58:10.156Z,1012.79
2019-04-07T08:59:13.873Z,1012.82
2019-04-07T09:00:14.940Z,1012.82
2019-04-07T09:01:14.268Z,1012.79
2019-04-07T09:02:14.844Z,1012.77
2019-04-07T09:03:16.396Z,1012.74
2019-04-07T09:04:17.856Z,1012.81
2019-04-07T09:05:23.092Z,1012.75
2019-04-07T09:06:20.805Z,1012.83
2019-04-07T09:07:24.335Z,1012.80
2019-04-07T09:08:22.733Z,1012.87
2019-04-07T09:09:32.550Z,1012.77
2019-04-07T09:10:24.861Z,1012.76
2019-04-07T09:11:25.434Z,1012.77
2019-04-07T09:12:28.941Z,1012.83
2019-04-07T09:13:27.716Z,1012.77
2019-04-07T09:14:28.414Z,1012.70
2019-04-07T09:15:28.861Z,1012.67
2019-04-07T09:16:30.158Z,1012.80
2019-04-07T09:17:38.763Z,1012.76
2019-04-07T09:18:32.380Z,1012.82
2019-04-07T09:19:35.035Z,1012.73
2019-04-07T09:20:34.650Z,1012.83
2019-04-07T09:21:40.271Z,1012.89
2019-04-07T09:22:36.827Z,1012.92
2019-04-07T09:23:38.116Z,1012.95
2019-04-07T09:24:38.243Z,1012.91
2019-04-07T09:25:40.789Z,1013.01
2019-04-07T09:26:42.764Z,1012.94
2019-04-07T09:27:41.940Z,1012.91
2019-04-07T09:28:43.125Z,1012.91
2019-04-07T09:29:44.197Z,1012.89
2019-04-07T09:30:44.732Z,1013.02
2019-04-07T09:31:45.308Z,1012.90
2019-04-07T09:32:46.039Z,1012.93
2019-04-07T09:33:48.958Z,1012.96
2019-04-07T09:34:50.565Z,1012.99
2019-04-07T09:35:48.741Z,1012.91
2019-04-07T09:36:51.124Z,1012.97
2019-04-07T09:37:53.281Z,1013.00
2019-04-07T09:38:52.557Z,1013.05
2019-04-07T09:39:59.203Z,1012.98
2019-04-07T09:40:54.754Z,1013.04
2019-04-07T09:41:55.604Z,1013.09
2019-04-07T09:42:58.709Z,1012.97
2019-04-07T09:44:01.153Z,1013.05
2019-04-07T09:44:59.306Z,1013.07
2019-04-07T09:45:59.874Z,1012.98
2019-04-07T09:47:00.819Z,1013.05
2019-04-07T09:48:02.148Z,1013.03
2019-04-07T09:49:03.446Z,1013.13
2019-04-07T09:50:04.877Z,1013.01
2019-04-07T09:51:07.270Z,1013.19
2019-04-07T09:52:10.264Z,1013.20
2019-04-07T09:53:08.616Z,1013.16
2019-04-07T09:54:09.953Z,1013.11
2019-04-07T09:55:10.556Z,1013.08
2019-04-07T09:56:11.974Z,1013.15
2019-04-07T09:57:12.702Z,1013.13
2019-04-07T09:58:13.278Z,1013.16
2019-04-07T09:59:16.754Z,1013.17
2019-04-07T10:00:16.025Z,1013.17
2019-04-07T10:01:19.888Z,1013.17
2019-04-07T10:02:18.538Z,1013.20
2019-04-07T10:03:19.306Z,1013.16
2019-04-07T10:04:19.838Z,1013.23
2019-04-07T10:05:20.464Z,1013.23
2019-04-07T10:06:21.041Z,1013.16
2019-04-07T10:07:21.619Z,1013.23
2019-04-07T10:08:22.196Z,1013.24
2019-04-07T10:09:23.012Z,1013.19
2019-04-07T10:10:23.801Z,1013.14
2019-04-07T10:11:25.164Z,1013.22
2019-04-07T10:12:28.138Z,1013.21
2019-04-07T10:13:27.481Z,1013.22
2019-04-07T10:14:28.040Z,1013.20
2019-04-07T10:15:28.616Z,1013.25
2019-04-07T10:16:32.060Z,1013.23
2019-04-07T10:17:30.772Z,1013.24
2019-04-07T10:18:32.831Z,1013.20
2019-04-07T10:19:32.963Z,1013.24
2019-04-07T10:20:33.680Z,1013.24
2019-04-07T10:21:34.979Z,1013.25
2019-04-07T10:22:35.598Z,1013.19
2019-04-07T10:23:36.443Z,1013.22
2019-04-07T10:24:37.112Z,1013.23
2019-04-07T10:25:37.655Z,1013.15
2019-04-07T10:26:39.087Z,1013.15
2019-04-07T10:27:39.752Z,1013.15
2019-04-07T10:28:41.953Z,1013.17
2019-04-07T10:29:42.735Z,1013.19
2019-04-07T10:30:43.542Z,1013.15
2019-04-07T10:31:44.233Z,1013.13
2019-04-07T10:32:44.783Z,1013.15
2019-04-07T10:33:46.069Z,1013.10
2019-04-07T10:34:46.674Z,1013.08
2019-04-07T10:35:47.765Z,1013.17
2019-04-07T10:36:48.619Z,1013.14
2019-04-07T10:37:51.328Z,1013.16
2019-04-07T10:38:50.808Z,1013.19
2019-04-07T10:39:51.398Z,1013.20
2019-04-07T10:40:51.977Z,1013.15
2019-04-07T10:41:53.264Z,1013.17
2019-04-07T10:42:55.530Z,1013.13
2019-04-07T10:43:55.814Z,1013.19
2019-04-07T10:44:56.015Z,1013.19
2019-04-07T10:45:57.109Z,1013.23
2019-04-07T10:46:57.678Z,1013.20
2019-04-07T10:47:58.255Z,1013.23
2019-04-07T10:48:59.116Z,1013.21
2019-04-07T10:50:04.980Z,1013.23
2019-04-07T10:51:01.071Z,1013.15
2019-04-07T10:52:02.808Z,1013.22
2019-04-07T10:53:03.762Z,1013.24
2019-04-07T10:54:04.916Z,1013.23
2019-04-07T10:55:05.791Z,1013.30
2019-04-07T10:56:06.896Z,1013.25
2019-04-07T10:57:07.583Z,1013.20
2019-04-07T10:58:08.286Z,1013.29
2019-04-07T10:59:09.329Z,1013.24
2019-04-07T11:00:09.896Z,1013.21
2019-04-07T11:01:11.131Z,1013.22
2019-04-07T11:02:11.906Z,1013.29
2019-04-07T11:03:13.169Z,1013.31
2019-04-07T11:04:13.875Z,1013.26
2019-04-07T11:05:14.422Z,1013.24
2019-04-07T11:06:15.044Z,1013.28
2019-04-07T11:07:18.612Z,1013.30
2019-04-07T11:08:18.277Z,1013.29
2019-04-07T11:09:18.844Z,1013.29
2019-04-07T11:10:30.606Z,1013.30
2019-04-07T11:11:21.399Z,1013.28
2019-04-07T11:12:21.969Z,1013.26
2019-04-07T11:13:23.193Z,1013.33
2019-04-07T11:14:23.949Z,1013.27
2019-04-07T11:15:24.918Z,1013.28
2019-04-07T11:16:26.275Z,1013.25
2019-04-07T11:17:27.285Z,1013.20
2019-04-07T11:18:27.895Z,1013.28
2019-04-07T11:19:28.596Z,1013.20
2019-04-07T11:20:29.958Z,1013.18
2019-04-07T11:21:30.546Z,1013.21
2019-04-07T11:22:31.123Z,1013.19
2019-04-07T11:23:31.968Z,1013.17
2019-04-07T11:24:32.553Z,1013.22
2019-04-07T11:25:33.661Z,1013.28
2019-04-07T11:26:34.227Z,1013.31
2019-04-07T11:27:35.408Z,1013.19
2019-04-07T11:28:36.018Z,1013.22
2019-04-07T11:29:38.522Z,1013.24
2019-04-07T11:30:38.707Z,1013.12
2019-04-07T11:31:39.306Z,1013.21
2019-04-07T11:32:40.265Z,1013.21
2019-04-07T11:33:41.426Z,1013.18
2019-04-07T11:34:41.976Z,1013.05
2019-04-07T11:35:43.152Z,1013.14
2019-04-07T11:36:43.277Z,1013.16
2019-04-07T11:37:44.109Z,1013.13
2019-04-07T11:38:45.252Z,1013.10
2019-04-07T11:39:46.389Z,1013.19
2019-04-07T11:40:50.729Z,1013.06
2019-04-07T11:41:48.560Z,1013.09
2019-04-07T11:42:49.101Z,1012.98
2019-04-07T11:43:50.074Z,1013.03
2019-04-07T11:44:50.871Z,1013.11
2019-04-07T11:45:58.363Z,1013.06
2019-04-07T11:46:53.568Z,1013.06
2019-04-07T11:47:54.519Z,1013.03
2019-04-07T11:48:55.940Z,1013.10
2019-04-07T11:49:57.189Z,1013.01
2019-04-07T11:50:57.768Z,1012.98
2019-04-07T11:51:58.347Z,1012.96
2019-04-07T11:52:58.982Z,1012.98
2019-04-07T11:53:59.894Z,1012.93
2019-04-07T11:55:00.924Z,1012.87
2019-04-07T11:56:04.676Z,1012.90
2019-04-07T11:57:03.317Z,1012.92
2019-04-07T11:58:12.894Z,1012.96
2019-04-07T11:59:07.811Z,1012.99
2019-04-07T12:00:07.531Z,1012.90
2019-04-07T12:01:12.809Z,1012.97
2019-04-07T12:02:10.436Z,1012.98
2019-04-07T12:03:11.712Z,1012.95
2019-04-07T12:04:15.187Z,1012.99
2019-04-07T12:05:14.706Z,1013.03
2019-04-07T12:06:16.846Z,1013.02
2019-04-07T12:07:20.378Z,1013.09
2019-04-07T12:08:17.510Z,1012.97
2019-04-07T12:09:18.136Z,1013.05
2019-04-07T12:10:18.716Z,1012.96
2019-04-07T12:11:19.961Z,1012.90
2019-04-07T12:12:21.210Z,1012.94
2019-04-07T12:13:22.242Z,1012.94
2019-04-07T12:14:22.802Z,1012.90
2019-04-07T12:15:26.698Z,1012.95
2019-04-07T12:16:26.635Z,1012.92